Terminal Aerodrome Forecast
Issued by NWS

Home | Current Version | Previous Version | Text Only | Print | Product List | Glossary Off
Versions: 1 2 3 4 5 6 7 8 9 10 11 12 13 14 15 16 17

000
FTUS43 KMPX 290520
TAFAXN
TAF
KAXN 290520Z 2906/3006 18006KT P6SM FEW050
     FM290900 00000KT 6SM BR SKC
      TEMPO 2910/2913 4SM BR FEW200
     FM291400 18005KT P6SM SKC=

USA.gov is the U.S. government's official web portal to all federal, state and local government web resources and services.